Time;durP1;ratioP1;P1;durP2;ratioP2;P2;SDS_P1;SDS_P2;PMS_P1;PMS_P2;Temp;Humidity;BMP_temperature;BMP_pressure;BME280_temperature;BME280_humidity;BME280_pressure;Samples;Min_cycle;Max_cycle;Signal;HPM_P1;HPM_P2
2022/05/30 00:00:32;;;;;;;;;;;13.10;62.50;;;;;;5035494;28;19913;-67
2022/05/30 00:02:58;;;;;;;;;;;13.10;62.60;;;;;;5022502;28;19932;-67
2022/05/30 00:05:24;;;;;;;;;;;13.00;62.60;;;;;;5049539;28;19909;-67
2022/05/30 00:07:49;;;;;;;;;;;13.00;62.70;;;;;;5035438;28;19909;-67
2022/05/30 00:10:16;;;;;;;;;;;13.00;62.80;;;;;;5023524;28;20063;-67
2022/05/30 00:12:41;;;;;;;;;;;12.90;62.80;;;;;;5023884;28;19914;-67
2022/05/30 00:15:08;;;;;;;;;;;12.90;62.90;;;;;;5024695;28;19995;-67
2022/05/30 00:17:34;;;;;;;;;;;12.90;62.90;;;;;;5034838;28;19959;-67
2022/05/30 00:19:59;;;;;;;;;;;12.90;63.00;;;;;;5035195;28;20330;-67
2022/05/30 00:22:25;;;;;;;;;;;12.90;63.00;;;;;;5024788;28;19913;-67
2022/05/30 00:24:50;;;;;;;;;;;12.90;63.00;;;;;;5032076;28;19962;-67
2022/05/30 00:27:18;;;;;;;;;;;12.90;63.00;;;;;;5034801;28;19963;-67
2022/05/30 00:29:44;;;;;;;;;;;12.90;63.10;;;;;;5034946;28;19920;-67
2022/05/30 00:32:10;;;;;;;;;;;12.80;63.10;;;;;;5024329;28;19918;-67
2022/05/30 00:34:36;;;;;;;;;;;12.80;63.20;;;;;;5021335;28;19924;-67
2022/05/30 00:37:02;;;;;;;;;;;12.80;63.40;;;;;;5034518;28;19955;-67
2022/05/30 00:39:27;;;;;;;;;;;12.80;63.50;;;;;;5033968;28;19956;-67
2022/05/30 00:42:05;;;;;;;;;;;12.70;63.50;;;;;;5026349;28;19948;-67
2022/05/30 00:44:30;;;;;;;;;;;12.70;63.60;;;;;;5018267;28;19917;-67
2022/05/30 00:46:56;;;;;;;;;;;12.70;63.70;;;;;;5016970;28;19909;-67
2022/05/30 00:49:21;;;;;;;;;;;12.70;63.70;;;;;;5027387;28;19909;-67
2022/05/30 00:51:49;;;;;;;;;;;12.70;63.80;;;;;;5027215;28;19911;-67
2022/05/30 00:54:16;;;;;;;;;;;12.70;63.80;;;;;;5027412;28;20294;-67
2022/05/30 00:56:45;;;;;;;;;;;12.70;63.80;;;;;;5033483;28;19924;-67
2022/05/30 00:59:10;;;;;;;;;;;12.70;63.80;;;;;;5034731;28;19909;-67
2022/05/30 01:01:36;;;;;;;;;;;12.70;63.80;;;;;;5015751;28;19913;-67
2022/05/30 01:06:49;;;;;;;;;;;12.60;63.80;;;;;;5032174;28;19913;-67
2022/05/30 01:09:17;;;;;;;;;;;12.60;63.90;;;;;;5050150;28;20318;-67
2022/05/30 01:11:53;;;;;;;;;;;12.60;63.80;;;;;;5029585;28;20020;-67
2022/05/30 01:14:19;;;;;;;;;;;12.70;63.90;;;;;;5037248;28;19979;-68
2022/05/30 01:16:45;;;;;;;;;;;12.60;63.80;;;;;;5037394;28;19920;-67
2022/05/30 01:19:18;;;;;;;;;;;12.70;63.80;;;;;;5038705;28;19908;-67
2022/05/30 01:22:04;;;;;;;;;;;12.60;63.80;;;;;;5048260;28;19921;-67
2022/05/30 01:24:48;;;;;;;;;;;12.60;63.80;;;;;;5031525;28;20258;-67
2022/05/30 01:28:08;;;;;;;;;;;12.60;63.90;;;;;;5032501;28;19916;-67
2022/05/30 01:30:39;;;;;;;;;;;12.60;63.90;;;;;;5009416;28;19914;-68
2022/05/30 01:33:04;;;;;;;;;;;12.50;63.90;;;;;;5030844;28;19963;-67
2022/05/30 01:35:31;;;;;;;;;;;12.50;64.00;;;;;;5033648;28;19919;-67
2022/05/30 01:38:00;;;;;;;;;;;12.50;64.10;;;;;;5014631;28;20388;-68
2022/05/30 01:40:27;;;;;;;;;;;12.50;64.10;;;;;;5031755;28;19917;-67
2022/05/30 01:42:54;;;;;;;;;;;12.40;64.20;;;;;;5029965;28;19909;-67
2022/05/30 01:45:20;;;;;;;;;;;12.40;64.30;;;;;;5037208;28;19944;-67
2022/05/30 01:47:45;;;;;;;;;;;12.40;64.30;;;;;;5034301;28;20006;-67
2022/05/30 01:50:12;;;;;;;;;;;12.30;64.30;;;;;;5036660;28;19917;-67
2022/05/30 01:52:41;;;;;;;;;;;12.30;64.40;;;;;;5031784;28;19920;-67
2022/05/30 01:55:07;;;;;;;;;;;12.30;64.50;;;;;;5029792;28;19913;-67
2022/05/30 01:57:41;;;;;;;;;;;12.30;64.50;;;;;;5032001;28;19909;-67
2022/05/30 02:00:41;;;;;;;;;;;12.20;64.50;;;;;;5037763;28;20246;-67
2022/05/30 02:03:08;;;;;;;;;;;12.20;64.60;;;;;;5031336;28;19915;-67
2022/05/30 02:05:33;;;;;;;;;;;12.20;64.60;;;;;;5036466;28;19909;-67
2022/05/30 02:07:59;;;;;;;;;;;12.20;64.70;;;;;;5036094;28;20004;-67
2022/05/30 02:10:29;;;;;;;;;;;12.10;64.70;;;;;;5016901;28;19917;-67
2022/05/30 02:12:56;;;;;;;;;;;12.10;64.80;;;;;;5042997;28;20334;-67
2022/05/30 02:18:35;;;;;;;;;;;12.10;64.90;;;;;;5036255;28;19963;-67
2022/05/30 02:21:01;;;;;;;;;;;12.00;64.90;;;;;;5052915;28;19909;-67
2022/05/30 02:23:27;;;;;;;;;;;12.00;64.90;;;;;;5029507;28;19952;-67
2022/05/30 02:25:52;;;;;;;;;;;12.00;65.00;;;;;;5042017;28;19947;-67
2022/05/30 02:28:18;;;;;;;;;;;12.00;65.00;;;;;;5031808;28;19977;-67
2022/05/30 02:30:43;;;;;;;;;;;12.00;65.10;;;;;;5008352;28;19916;-67
2022/05/30 02:38:38;;;;;;;;;;;11.90;65.10;;;;;;5035889;28;20046;-67
2022/05/30 02:41:32;;;;;;;;;;;11.90;65.10;;;;;;5035014;28;19924;-67
2022/05/30 02:44:04;;;;;;;;;;;11.90;65.10;;;;;;5032091;28;20000;-67
2022/05/30 02:46:30;;;;;;;;;;;11.90;65.20;;;;;;5032285;28;19945;-67
2022/05/30 02:48:56;;;;;;;;;;;11.90;65.20;;;;;;5043385;28;19924;-67
2022/05/30 02:51:21;;;;;;;;;;;11.90;65.30;;;;;;5049842;28;19975;-67
2022/05/30 02:53:47;;;;;;;;;;;11.90;65.20;;;;;;5032360;28;19913;-67
2022/05/30 02:56:31;;;;;;;;;;;11.90;65.20;;;;;;5021812;28;19924;-67
2022/05/30 02:58:58;;;;;;;;;;;11.90;65.30;;;;;;5036647;28;19909;-67
2022/05/30 03:01:23;;;;;;;;;;;11.90;65.40;;;;;;5016255;28;19920;-67
2022/05/30 03:03:50;;;;;;;;;;;11.80;65.40;;;;;;5033404;28;20316;-67
2022/05/30 03:06:16;;;;;;;;;;;11.80;65.40;;;;;;5035412;28;19944;-67
2022/05/30 03:08:42;;;;;;;;;;;11.80;65.40;;;;;;5036457;28;19944;-67
2022/05/30 03:11:11;;;;;;;;;;;11.80;65.40;;;;;;5035334;28;19909;-67
2022/05/30 03:13:37;;;;;;;;;;;11.80;65.50;;;;;;5044585;28;19960;-67
2022/05/30 03:16:04;;;;;;;;;;;11.80;65.60;;;;;;5007058;28;19917;-67
2022/05/30 03:18:31;;;;;;;;;;;11.70;65.60;;;;;;5031188;28;19909;-67
2022/05/30 03:20:57;;;;;;;;;;;11.70;65.60;;;;;;5032625;28;20467;-67
2022/05/30 03:23:23;;;;;;;;;;;11.70;65.60;;;;;;5034851;28;19920;-67
2022/05/30 03:26:00;;;;;;;;;;;11.70;65.70;;;;;;5034929;28;19913;-67
2022/05/30 03:28:31;;;;;;;;;;;11.60;65.70;;;;;;5034909;28;19909;-67
2022/05/30 03:30:57;;;;;;;;;;;11.60;65.80;;;;;;5029235;28;20386;-67
2022/05/30 03:33:23;;;;;;;;;;;11.60;65.80;;;;;;5045315;28;20006;-67
2022/05/30 03:35:48;;;;;;;;;;;11.60;65.80;;;;;;5026224;28;19909;-67
2022/05/30 03:38:32;;;;;;;;;;;11.60;65.80;;;;;;5018608;28;20320;-67
2022/05/30 03:41:16;;;;;;;;;;;11.60;65.80;;;;;;5034272;28;19920;-67
2022/05/30 03:43:52;;;;;;;;;;;11.60;65.80;;;;;;5034803;28;19916;-67
2022/05/30 03:46:18;;;;;;;;;;;11.60;65.80;;;;;;5044251;28;19916;-67
2022/05/30 03:48:43;;;;;;;;;;;11.70;65.80;;;;;;5017061;28;19909;-67
2022/05/30 03:51:12;;;;;;;;;;;11.70;65.80;;;;;;5030006;28;19972;-67
2022/05/30 03:53:38;;;;;;;;;;;11.70;65.90;;;;;;5035298;28;19979;-67
2022/05/30 03:56:04;;;;;;;;;;;11.70;65.80;;;;;;5017869;28;19921;-67
2022/05/30 03:58:30;;;;;;;;;;;11.70;65.80;;;;;;5017806;28;19920;-67
2022/05/30 04:00:55;;;;;;;;;;;11.70;65.80;;;;;;5032012;28;19909;-67
2022/05/30 04:03:21;;;;;;;;;;;11.80;65.80;;;;;;5025490;28;19916;-67
2022/05/30 04:05:46;;;;;;;;;;;11.80;65.80;;;;;;5007498;28;19909;-67
2022/05/30 04:08:12;;;;;;;;;;;11.80;65.70;;;;;;5020908;28;19963;-67
2022/05/30 04:10:57;;;;;;;;;;;11.80;65.70;;;;;;5018104;28;19928;-67
2022/05/30 04:13:49;;;;;;;;;;;11.80;65.70;;;;;;5034643;28;19948;-67
2022/05/30 04:16:32;;;;;;;;;;;11.80;65.70;;;;;;5017587;28;19916;-67
2022/05/30 04:19:02;;;;;;;;;;;11.90;65.80;;;;;;5017256;28;20357;-65
2022/05/30 04:21:28;;;;;;;;;;;11.90;65.80;;;;;;5007050;28;19909;-66
2022/05/30 04:23:54;;;;;;;;;;;11.90;65.70;;;;;;5027563;28;19916;-66
2022/05/30 04:26:22;;;;;;;;;;;11.90;65.70;;;;;;5018770;28;19916;-66
2022/05/30 04:28:51;;;;;;;;;;;12.00;65.80;;;;;;5017121;28;20008;-66
2022/05/30 04:31:35;;;;;;;;;;;11.90;65.80;;;;;;5030068;28;19927;-66
2022/05/30 04:34:00;;;;;;;;;;;11.90;65.80;;;;;;5043360;28;20012;-66
2022/05/30 04:36:27;;;;;;;;;;;12.00;65.80;;;;;;5039983;28;19909;-67
2022/05/30 04:38:54;;;;;;;;;;;12.00;65.70;;;;;;5028657;28;19976;-67
2022/05/30 04:41:35;;;;;;;;;;;12.00;65.70;;;;;;5026679;28;19909;-67
2022/05/30 04:44:27;;;;;;;;;;;12.10;65.70;;;;;;5028775;28;19963;-67
2022/05/30 04:47:12;;;;;;;;;;;12.10;65.60;;;;;;5032622;28;19979;-67
2022/05/30 04:49:44;;;;;;;;;;;12.20;65.60;;;;;;5038261;28;19917;-67
2022/05/30 04:52:09;;;;;;;;;;;12.20;65.50;;;;;;5031566;28;19909;-67
2022/05/30 04:54:35;;;;;;;;;;;12.20;65.50;;;;;;5033943;28;19913;-67
2022/05/30 04:57:19;;;;;;;;;;;12.30;65.50;;;;;;5034984;28;20385;-67
2022/05/30 05:00:05;;;;;;;;;;;12.30;65.30;;;;;;5009161;28;19919;-67
2022/05/30 05:02:33;;;;;;;;;;;12.40;65.30;;;;;;5023606;28;19923;-67
2022/05/30 05:04:58;;;;;;;;;;;12.40;65.30;;;;;;5040947;28;19909;-67
2022/05/30 05:07:27;;;;;;;;;;;12.40;65.30;;;;;;5039838;28;20265;-69
2022/05/30 05:10:26;;;;;;;;;;;12.40;65.30;;;;;;5031837;28;19916;-69
2022/05/30 05:13:18;;;;;;;;;;;12.50;65.30;;;;;;5034677;28;20245;-70
2022/05/30 05:16:05;;;;;;;;;;;12.50;65.80;;;;;;5028364;28;19917;-68
2022/05/30 05:18:34;;;;;;;;;;;12.60;65.10;;;;;;5042453;28;21432;-67
2022/05/30 05:21:00;;;;;;;;;;;12.70;65.00;;;;;;5020249;28;20282;-67
2022/05/30 05:23:25;;;;;;;;;;;12.70;64.80;;;;;;5031329;28;19916;-67
2022/05/30 05:25:55;;;;;;;;;;;12.80;64.80;;;;;;5036401;28;19945;-67
2022/05/30 05:28:26;;;;;;;;;;;12.90;64.70;;;;;;5032547;28;19916;-67
2022/05/30 05:30:51;;;;;;;;;;;12.90;64.60;;;;;;5030170;28;19909;-67
2022/05/30 05:33:18;;;;;;;;;;;12.90;64.50;;;;;;5040353;28;20250;-67
2022/05/30 05:35:44;;;;;;;;;;;13.00;64.40;;;;;;5026601;28;19916;-67
2022/05/30 05:38:10;;;;;;;;;;;13.00;64.30;;;;;;5032214;28;19909;-67
2022/05/30 05:40:45;;;;;;;;;;;13.10;64.20;;;;;;5032911;28;20321;-67
2022/05/30 05:43:11;;;;;;;;;;;13.20;64.10;;;;;;5033086;28;19909;-67
2022/05/30 05:45:39;;;;;;;;;;;13.30;64.00;;;;;;5041294;28;19909;-67
2022/05/30 05:48:05;;;;;;;;;;;13.40;63.90;;;;;;5028862;28;19913;-68
2022/05/30 05:50:31;;;;;;;;;;;13.40;63.80;;;;;;5032594;28;19924;-67
2022/05/30 05:52:56;;;;;;;;;;;13.40;63.70;;;;;;5031802;28;19909;-66
2022/05/30 05:55:26;;;;;;;;;;;13.50;63.70;;;;;;5030267;28;19913;-65
2022/05/30 05:57:51;;;;;;;;;;;13.50;63.50;;;;;;5043309;28;20011;-66
2022/05/30 06:00:17;;;;;;;;;;;13.60;63.50;;;;;;5041422;28;20322;-66
2022/05/30 06:02:47;;;;;;;;;;;13.60;63.40;;;;;;5026215;28;19909;-66
2022/05/30 06:05:17;;;;;;;;;;;13.80;63.20;;;;;;5045461;28;19909;-70
2022/05/30 06:08:11;;;;;;;;;;;13.90;63.00;;;;;;5049050;28;19913;-65
2022/05/30 06:11:12;;;;;;;;;;;14.00;62.70;;;;;;5026150;28;19920;-66
2022/05/30 06:13:42;;;;;;;;;;;14.30;62.30;;;;;;5035610;28;19971;-66
2022/05/30 06:16:09;;;;;;;;;;;14.50;61.70;;;;;;5024715;28;20338;-65
2022/05/30 06:18:48;;;;;;;;;;;14.60;61.30;;;;;;5033778;28;20285;-66
2022/05/30 06:21:14;;;;;;;;;;;14.70;61.20;;;;;;5033267;28;20340;-65
2022/05/30 06:23:45;;;;;;;;;;;14.80;61.00;;;;;;5051366;28;19909;-67
2022/05/30 06:26:29;;;;;;;;;;;14.80;60.70;;;;;;5032337;28;20280;-67
2022/05/30 06:29:14;;;;;;;;;;;14.80;60.70;;;;;;5037119;28;19992;-67
2022/05/30 06:31:42;;;;;;;;;;;14.80;60.90;;;;;;5031568;28;19917;-67
2022/05/30 06:34:07;;;;;;;;;;;14.70;60.90;;;;;;5034642;28;19971;-67
2022/05/30 06:36:37;;;;;;;;;;;14.70;61.00;;;;;;5035037;28;19967;-64
2022/05/30 06:39:03;;;;;;;;;;;14.60;60.90;;;;;;5037119;28;19913;-65
2022/05/30 06:41:34;;;;;;;;;;;14.80;60.70;;;;;;5030630;28;19915;-64
2022/05/30 06:44:08;;;;;;;;;;;14.90;60.30;;;;;;5027257;28;19916;-65
2022/05/30 06:46:52;;;;;;;;;;;15.10;60.00;;;;;;5025877;28;19916;-65
2022/05/30 06:49:50;;;;;;;;;;;15.20;59.60;;;;;;5018492;28;19917;-66
2022/05/30 06:52:16;;;;;;;;;;;15.40;59.60;;;;;;5047296;28;19909;-65
2022/05/30 06:54:42;;;;;;;;;;;15.50;59.40;;;;;;5032703;28;19928;-65
2022/05/30 06:59:53;;;;;;;;;;;15.60;59.10;;;;;;5032687;28;19996;-65
2022/05/30 07:02:18;;;;;;;;;;;15.60;59.10;;;;;;5043827;28;20315;-65
2022/05/30 07:05:03;;;;;;;;;;;15.60;59.00;;;;;;5037054;28;19935;-65
2022/05/30 07:07:47;;;;;;;;;;;15.70;58.90;;;;;;5032480;28;19916;-65
2022/05/30 07:10:42;;;;;;;;;;;15.60;59.00;;;;;;5011885;28;19920;-65
2022/05/30 07:13:12;;;;;;;;;;;15.60;59.00;;;;;;5035715;28;20016;-66
2022/05/30 07:15:38;;;;;;;;;;;15.50;59.10;;;;;;5027488;28;19925;-66
2022/05/30 07:18:09;;;;;;;;;;;15.50;59.10;;;;;;5028249;28;19967;-65
2022/05/30 07:20:34;;;;;;;;;;;15.50;59.20;;;;;;5040462;28;20047;-66
2022/05/30 07:23:19;;;;;;;;;;;15.50;59.20;;;;;;5027838;28;19920;-65
2022/05/30 07:26:05;;;;;;;;;;;15.50;59.20;;;;;;5020112;28;19924;-66
2022/05/30 07:28:51;;;;;;;;;;;15.50;59.20;;;;;;5038357;28;20008;-66
2022/05/30 07:31:35;;;;;;;;;;;15.40;59.20;;;;;;5035685;28;19974;-66
2022/05/30 07:34:19;;;;;;;;;;;15.40;59.20;;;;;;5034121;28;20309;-67
2022/05/30 07:37:04;;;;;;;;;;;15.40;59.10;;;;;;5034545;28;20277;-65
2022/05/30 07:39:50;;;;;;;;;;;15.50;59.10;;;;;;5035158;28;19944;-67
2022/05/30 07:42:28;;;;;;;;;;;15.50;59.00;;;;;;5046187;28;19909;-66
2022/05/30 07:45:18;;;;;;;;;;;15.50;58.90;;;;;;5016913;28;19916;-64
2022/05/30 07:47:56;;;;;;;;;;;15.50;58.90;;;;;;5029515;28;19909;-66
2022/05/30 07:51:00;;;;;;;;;;;15.50;58.90;;;;;;5023070;28;19915;-65
2022/05/30 07:53:38;;;;;;;;;;;15.50;59.00;;;;;;5023085;28;19909;-66
2022/05/30 07:56:13;;;;;;;;;;;15.40;59.10;;;;;;5018355;28;19908;-66
2022/05/30 07:58:39;;;;;;;;;;;15.40;59.20;;;;;;5035052;28;19952;-65
2022/05/30 08:01:05;;;;;;;;;;;15.30;59.10;;;;;;5034256;28;20417;-65
2022/05/30 08:03:34;;;;;;;;;;;15.30;59.20;;;;;;5018328;28;19913;-66
2022/05/30 08:06:19;;;;;;;;;;;15.20;59.30;;;;;;5008138;28;20318;-66
2022/05/30 08:09:04;;;;;;;;;;;15.10;59.40;;;;;;5034205;28;20242;-65
2022/05/30 08:11:30;;;;;;;;;;;15.10;59.40;;;;;;5016221;28;20018;-66
2022/05/30 08:14:07;;;;;;;;;;;15.20;59.40;;;;;;5017834;28;19921;-65
2022/05/30 08:16:37;;;;;;;;;;;15.20;59.30;;;;;;5028017;28;20357;-65
2022/05/30 08:19:04;;;;;;;;;;;15.30;59.20;;;;;;5017903;28;19913;-66
2022/05/30 08:21:30;;;;;;;;;;;15.30;59.00;;;;;;5033570;28;19909;-67
2022/05/30 08:23:55;;;;;;;;;;;15.40;58.90;;;;;;5033837;28;20357;-65
2022/05/30 08:26:21;;;;;;;;;;;15.40;59.30;;;;;;5028364;28;19940;-65
2022/05/30 08:29:06;;;;;;;;;;;15.50;58.70;;;;;;5032082;28;19983;-65
2022/05/30 08:31:33;;;;;;;;;;;15.50;58.50;;;;;;5019400;28;19921;-64
2022/05/30 08:34:18;;;;;;;;;;;15.60;58.50;;;;;;5038479;28;19939;-66
2022/05/30 08:36:55;;;;;;;;;;;15.60;58.50;;;;;;5009685;28;19971;-66
2022/05/30 08:42:07;;;;;;;;;;;15.70;58.10;;;;;;5033067;28;19912;-66
2022/05/30 08:44:51;;;;;;;;;;;15.80;58.10;;;;;;5029075;28;19927;-66
2022/05/30 08:47:23;;;;;;;;;;;15.80;57.90;;;;;;5022650;28;19921;-67
2022/05/30 08:49:52;;;;;;;;;;;15.80;57.90;;;;;;5031198;28;19930;-67
2022/05/30 08:52:37;;;;;;;;;;;15.80;57.80;;;;;;5020454;28;19909;-67
2022/05/30 08:55:03;;;;;;;;;;;15.80;57.90;;;;;;5026438;28;19917;-67
2022/05/30 08:57:58;;;;;;;;;;;15.80;57.80;;;;;;5036897;28;20341;-67
2022/05/30 09:00:30;;;;;;;;;;;15.90;57.70;;;;;;5017879;28;20882;-67
2022/05/30 09:03:25;;;;;;;;;;;16.00;57.60;;;;;;5024698;28;19909;-67
2022/05/30 09:05:57;;;;;;;;;;;16.00;57.50;;;;;;5026847;28;19909;-67
2022/05/30 09:08:23;;;;;;;;;;;16.10;57.50;;;;;;5029030;28;19913;-67
2022/05/30 09:10:58;;;;;;;;;;;16.10;57.40;;;;;;5029376;28;20024;-67
2022/05/30 09:13:29;;;;;;;;;;;16.20;57.30;;;;;;5029791;28;19917;-67
2022/05/30 09:16:13;;;;;;;;;;;16.30;57.20;;;;;;5026006;28;19924;-67
2022/05/30 09:18:47;;;;;;;;;;;16.40;57.00;;;;;;5040781;28;19909;-67
2022/05/30 09:21:17;;;;;;;;;;;16.50;56.90;;;;;;5025404;28;20007;-67
2022/05/30 09:23:46;;;;;;;;;;;16.70;56.60;;;;;;5028304;28;19979;-66
2022/05/30 09:26:13;;;;;;;;;;;16.70;56.40;;;;;;5033362;28;19909;-67
2022/05/30 09:29:01;;;;;;;;;;;16.80;56.40;;;;;;5026246;28;19984;-67
2022/05/30 09:31:36;;;;;;;;;;;16.80;56.40;;;;;;5027118;28;19917;-67
2022/05/30 09:34:31;;;;;;;;;;;16.80;56.50;;;;;;5029202;28;20366;-67
2022/05/30 09:37:35;;;;;;;;;;;16.80;56.40;;;;;;5045936;28;20000;-67
2022/05/30 09:40:20;;;;;;;;;;;16.90;56.30;;;;;;5030642;28;19909;-67
2022/05/30 09:43:02;;;;;;;;;;;16.90;56.20;;;;;;5034987;28;19956;-67
2022/05/30 09:45:29;;;;;;;;;;;16.90;56.20;;;;;;5034987;28;20302;-67
2022/05/30 09:48:05;;;;;;;;;;;16.90;56.30;;;;;;5037365;28;19987;-69
2022/05/30 09:50:41;;;;;;;;;;;16.80;56.20;;;;;;5023485;28;20337;-67
2022/05/30 09:53:07;;;;;;;;;;;16.80;56.20;;;;;;5033414;28;19909;-67
2022/05/30 09:55:34;;;;;;;;;;;16.90;56.10;;;;;;5034990;28;19927;-67
2022/05/30 09:58:04;;;;;;;;;;;17.30;55.80;;;;;;5046788;28;19913;-67
2022/05/30 10:00:57;;;;;;;;;;;17.80;55.00;;;;;;5040131;28;19924;-67
2022/05/30 10:03:24;;;;;;;;;;;18.10;54.30;;;;;;5037208;28;19920;-67
2022/05/30 10:06:09;;;;;;;;;;;18.20;53.80;;;;;;5028356;28;20008;-67
2022/05/30 10:08:35;;;;;;;;;;;18.20;53.70;;;;;;5032698;28;20008;-67
2022/05/30 10:11:32;;;;;;;;;;;18.20;53.70;;;;;;5037561;28;19920;-67
2022/05/30 10:14:16;;;;;;;;;;;18.30;53.70;;;;;;5053815;28;20008;-67
2022/05/30 10:17:25;;;;;;;;;;;18.20;53.50;;;;;;5028438;28;19909;-68
2022/05/30 10:19:51;;;;;;;;;;;18.00;53.70;;;;;;5021277;28;19909;-67
2022/05/30 10:28:56;;;;;;;;;;;17.40;54.50;;;;;;5019760;28;20365;-67
2022/05/30 10:31:47;;;;;;;;;;;17.10;54.60;;;;;;5035509;28;19921;-67
2022/05/30 10:34:29;;;;;;;;;;;16.90;54.50;;;;;;5021587;28;19940;-67
2022/05/30 10:37:01;;;;;;;;;;;16.70;55.30;;;;;;5032035;28;19909;-67
2022/05/30 10:39:39;;;;;;;;;;;16.50;55.60;;;;;;5047985;28;20356;-67
2022/05/30 10:42:13;;;;;;;;;;;16.40;55.60;;;;;;5050202;28;19956;-67
2022/05/30 10:44:41;;;;;;;;;;;16.30;55.80;;;;;;5022429;28;19924;-67
2022/05/30 10:47:25;;;;;;;;;;;16.20;55.90;;;;;;5045783;28;19913;-67
2022/05/30 10:50:00;;;;;;;;;;;16.00;55.90;;;;;;5034969;28;20345;-67
2022/05/30 10:52:32;;;;;;;;;;;16.00;56.00;;;;;;5036154;28;19912;-67
2022/05/30 10:55:03;;;;;;;;;;;15.90;56.00;;;;;;5036206;28;19913;-67
2022/05/30 10:57:39;;;;;;;;;;;15.90;56.00;;;;;;5029315;28;20011;-67
2022/05/30 11:00:09;;;;;;;;;;;15.90;56.10;;;;;;5052641;28;20301;-67
2022/05/30 11:02:57;;;;;;;;;;;15.90;56.10;;;;;;5035893;28;19928;-67
2022/05/30 11:05:23;;;;;;;;;;;15.80;55.70;;;;;;5035838;28;19913;-67
2022/05/30 11:08:00;;;;;;;;;;;15.80;56.00;;;;;;5047143;28;19915;-67
2022/05/30 11:10:32;;;;;;;;;;;15.70;56.00;;;;;;5051146;28;20023;-67
2022/05/30 11:13:17;;;;;;;;;;;15.70;55.90;;;;;;5035751;28;19909;-67
2022/05/30 11:16:05;;;;;;;;;;;15.70;55.90;;;;;;5048878;28;19920;-67
2022/05/30 11:19:07;;;;;;;;;;;15.70;55.90;;;;;;5035980;28;20011;-67
2022/05/30 11:21:43;;;;;;;;;;;15.70;55.80;;;;;;5036421;28;19909;-67
2022/05/30 11:24:09;;;;;;;;;;;15.70;55.70;;;;;;5032486;28;20425;-67
2022/05/30 11:26:44;;;;;;;;;;;15.70;55.70;;;;;;5028837;28;20019;-67
2022/05/30 11:29:18;;;;;;;;;;;15.70;55.60;;;;;;5031725;28;19908;-67
2022/05/30 11:31:56;;;;;;;;;;;15.70;55.60;;;;;;5034780;28;20000;-67
2022/05/30 11:34:32;;;;;;;;;;;15.80;55.60;;;;;;5028346;28;20008;-66
2022/05/30 11:37:14;;;;;;;;;;;15.80;55.50;;;;;;5032230;28;19909;-68
2022/05/30 11:39:42;;;;;;;;;;;15.80;55.30;;;;;;5034970;28;19909;-67
2022/05/30 11:42:26;;;;;;;;;;;15.80;55.30;;;;;;5039091;28;19909;-66
2022/05/30 11:44:57;;;;;;;;;;;15.80;55.20;;;;;;5035653;28;20349;-66
2022/05/30 11:47:27;;;;;;;;;;;15.90;55.20;;;;;;5032599;28;20257;-66
2022/05/30 11:49:58;;;;;;;;;;;15.90;55.20;;;;;;5034192;28;19921;-66
2022/05/30 11:52:30;;;;;;;;;;;15.90;55.20;;;;;;5032943;28;20222;-67
2022/05/30 11:55:19;;;;;;;;;;;15.90;55.10;;;;;;5032855;28;20015;-67
2022/05/30 11:57:51;;;;;;;;;;;16.00;55.10;;;;;;5021476;28;19909;-66
2022/05/30 12:00:19;;;;;;;;;;;16.00;55.00;;;;;;5033364;28;19909;-66
2022/05/30 12:02:55;;;;;;;;;;;16.00;55.00;;;;;;5028376;28;19909;-66
2022/05/30 12:05:45;;;;;;;;;;;16.10;54.90;;;;;;5034157;28;19909;-67
2022/05/30 12:08:10;;;;;;;;;;;16.10;54.80;;;;;;5031561;28;19999;-66
2022/05/30 12:10:39;;;;;;;;;;;16.20;54.70;;;;;;5033893;28;19940;-66
2022/05/30 12:13:04;;;;;;;;;;;16.30;54.70;;;;;;5031941;28;19955;-67
2022/05/30 12:15:49;;;;;;;;;;;16.30;54.50;;;;;;5033775;28;19960;-67
2022/05/30 12:23:50;;;;;;;;;;;16.60;54.10;;;;;;5029258;28;19948;-67
2022/05/30 12:26:36;;;;;;;;;;;16.80;54.00;;;;;;5032541;28;20222;-66
2022/05/30 12:29:02;;;;;;;;;;;16.80;53.80;;;;;;5023931;28;20015;-66
2022/05/30 12:31:37;;;;;;;;;;;17.00;53.70;;;;;;5023179;28;19925;-66
2022/05/30 12:34:06;;;;;;;;;;;17.10;53.60;;;;;;5017982;28;19917;-66
2022/05/30 12:36:36;;;;;;;;;;;17.20;53.40;;;;;;5035220;28;20402;-66
2022/05/30 12:39:23;;;;;;;;;;;17.30;53.00;;;;;;5018007;28;19921;-66
2022/05/30 12:41:59;;;;;;;;;;;17.30;53.20;;;;;;5019287;28;19923;-64
2022/05/30 12:44:45;;;;;;;;;;;17.30;53.20;;;;;;5022592;28;19910;-64
2022/05/30 12:47:14;;;;;;;;;;;17.40;53.20;;;;;;5015439;28;20369;-65
2022/05/30 12:49:41;;;;;;;;;;;17.40;53.00;;;;;;5026041;28;19916;-64
2022/05/30 12:52:14;;;;;;;;;;;17.40;53.00;;;;;;5019138;28;19909;-65
2022/05/30 12:54:45;;;;;;;;;;;17.50;53.10;;;;;;5031576;28;20049;-65
2022/05/30 12:57:31;;;;;;;;;;;17.50;53.00;;;;;;5015095;28;19909;-65
2022/05/30 13:00:00;;;;;;;;;;;17.50;53.00;;;;;;5016890;28;19945;-64
2022/05/30 13:02:44;;;;;;;;;;;17.50;52.70;;;;;;5003189;28;19914;-65
2022/05/30 13:05:21;;;;;;;;;;;17.60;52.80;;;;;;5014692;28;19909;-64
2022/05/30 13:07:47;;;;;;;;;;;17.60;52.70;;;;;;5033355;28;19910;-65
2022/05/30 13:10:12;;;;;;;;;;;17.70;52.70;;;;;;5025256;28;20318;-65
2022/05/30 13:12:53;;;;;;;;;;;17.70;52.60;;;;;;5024049;28;19917;-65
2022/05/30 13:15:22;;;;;;;;;;;17.90;52.60;;;;;;5021069;28;20008;-65
2022/05/30 13:18:01;;;;;;;;;;;17.90;52.40;;;;;;5033410;28;19908;-65
2022/05/30 13:20:34;;;;;;;;;;;17.90;52.40;;;;;;5023429;28;20287;-65
2022/05/30 13:23:01;;;;;;;;;;;18.00;52.40;;;;;;5021452;28;20402;-65
2022/05/30 13:25:32;;;;;;;;;;;18.10;52.30;;;;;;5016168;28;19909;-65
2022/05/30 13:28:06;;;;;;;;;;;18.10;52.20;;;;;;5022425;28;20326;-65
2022/05/30 13:30:32;;;;;;;;;;;18.20;52.30;;;;;;5040047;28;19910;-65
2022/05/30 13:32:57;;;;;;;;;;;18.20;52.20;;;;;;5025300;28;19925;-65
2022/05/30 13:35:28;;;;;;;;;;;18.20;52.20;;;;;;5033760;28;20301;-64
2022/05/30 13:38:03;;;;;;;;;;;18.20;52.30;;;;;;5033089;28;20356;-65
2022/05/30 13:40:30;;;;;;;;;;;18.10;52.30;;;;;;5031994;28;19975;-65
2022/05/30 13:42:57;;;;;;;;;;;18.10;52.40;;;;;;5024785;28;20364;-65
2022/05/30 13:45:26;;;;;;;;;;;18.10;52.50;;;;;;5031399;28;19917;-66
2022/05/30 13:47:57;;;;;;;;;;;18.10;52.50;;;;;;5044361;28;19921;-65
2022/05/30 13:50:24;;;;;;;;;;;18.10;52.50;;;;;;5028201;28;19920;-65
2022/05/30 13:52:50;;;;;;;;;;;18.00;52.40;;;;;;5029672;28;19967;-65
2022/05/30 13:55:19;;;;;;;;;;;18.00;52.40;;;;;;5028975;28;19912;-66
2022/05/30 13:57:44;;;;;;;;;;;18.10;52.40;;;;;;5034261;28;19917;-65
2022/05/30 14:00:16;;;;;;;;;;;18.10;52.30;;;;;;5023516;28;19959;-65
2022/05/30 14:02:43;;;;;;;;;;;18.10;52.30;;;;;;5022452;28;19913;-65
2022/05/30 14:05:11;;;;;;;;;;;18.00;52.10;;;;;;5032186;28;19909;-66
2022/05/30 14:07:46;;;;;;;;;;;18.00;52.20;;;;;;5033701;28;19932;-66
2022/05/30 14:10:13;;;;;;;;;;;18.00;52.10;;;;;;5033293;28;20012;-65
2022/05/30 14:12:41;;;;;;;;;;;18.10;52.10;;;;;;5030223;28;19909;-65
2022/05/30 14:15:11;;;;;;;;;;;18.00;52.00;;;;;;5011469;28;19912;-65
2022/05/30 14:17:36;;;;;;;;;;;18.00;52.00;;;;;;5026241;28;19920;-66
2022/05/30 14:20:06;;;;;;;;;;;18.10;52.00;;;;;;5026677;28;19913;-68
2022/05/30 14:22:32;;;;;;;;;;;18.00;51.90;;;;;;5034045;28;20000;-65
2022/05/30 14:24:59;;;;;;;;;;;18.00;51.80;;;;;;5030183;28;20004;-65
2022/05/30 14:27:26;;;;;;;;;;;18.00;51.70;;;;;;5015132;28;19979;-66
2022/05/30 14:29:52;;;;;;;;;;;18.00;51.40;;;;;;5026067;28;19917;-67
2022/05/30 14:32:18;;;;;;;;;;;18.00;51.60;;;;;;5027704;28;19916;-67
2022/05/30 14:34:55;;;;;;;;;;;18.00;51.60;;;;;;5021657;28;19967;-67
2022/05/30 14:37:28;;;;;;;;;;;18.00;51.60;;;;;;5034205;28;20007;-69
2022/05/30 14:39:54;;;;;;;;;;;18.00;51.60;;;;;;5052513;28;19913;-66
2022/05/30 14:42:23;;;;;;;;;;;18.00;51.60;;;;;;5032398;28;19909;-66
2022/05/30 14:44:57;;;;;;;;;;;18.00;51.60;;;;;;5026841;28;19909;-67
2022/05/30 14:47:31;;;;;;;;;;;18.00;51.50;;;;;;5027313;28;19935;-67
2022/05/30 14:50:08;;;;;;;;;;;17.90;51.10;;;;;;5030647;28;19909;-68
2022/05/30 14:52:38;;;;;;;;;;;17.90;51.40;;;;;;5028297;28;19956;-68
2022/05/30 14:55:06;;;;;;;;;;;17.80;51.40;;;;;;5027459;28;19921;-68
2022/05/30 14:57:32;;;;;;;;;;;17.70;51.30;;;;;;5027930;28;19913;-68
2022/05/30 14:59:57;;;;;;;;;;;17.70;51.30;;;;;;5036555;28;19963;-66
2022/05/30 15:05:09;;;;;;;;;;;17.70;51.30;;;;;;5035625;28;20325;-67
2022/05/30 15:07:38;;;;;;;;;;;17.70;51.20;;;;;;5030224;28;19936;-67
2022/05/30 15:10:03;;;;;;;;;;;17.70;51.20;;;;;;5034937;28;19971;-68
2022/05/30 15:12:29;;;;;;;;;;;17.60;51.20;;;;;;5027032;28;20250;-69
2022/05/30 15:14:54;;;;;;;;;;;17.60;51.30;;;;;;5028971;28;19928;-69
2022/05/30 15:17:20;;;;;;;;;;;17.60;51.30;;;;;;5030727;28;19908;-68
2022/05/30 15:19:45;;;;;;;;;;;17.50;51.30;;;;;;5035143;28;19909;-68